sensor_id;sensor_type;location;lat;lon;timestamp;pressure;altitude;pressure_sealevel;temperature;humidity
9935;BME280;5006;41.828;23.478;2024-01-15T00:00:22;89664.09;;;4.37;70.17
9935;BME280;5006;41.828;23.478;2024-01-15T00:01:28;89671.94;;;3.91;70.20
9935;BME280;5006;41.828;23.478;2024-01-15T00:02:33;89657.41;;;4.14;69.98
9935;BME280;5006;41.828;23.478;2024-01-15T00:03:39;89672.75;;;4.67;68.85
9935;BME280;5006;41.828;23.478;2024-01-15T00:04:44;89659.13;;;4.72;68.11
9935;BME280;5006;41.828;23.478;2024-01-15T00:05:50;89665.13;;;4.66;68.40
9935;BME280;5006;41.828;23.478;2024-01-15T00:06:56;89665.50;;;4.28;70.16
9935;BME280;5006;41.828;23.478;2024-01-15T00:08:03;89675.88;;;4.04;70.44
9935;BME280;5006;41.828;23.478;2024-01-15T00:09:09;89674.31;;;3.70;70.58
9935;BME280;5006;41.828;23.478;2024-01-15T00:10:16;89668.41;;;3.50;74.38
9935;BME280;5006;41.828;23.478;2024-01-15T00:11:20;89670.66;;;3.22;75.57
9935;BME280;5006;41.828;23.478;2024-01-15T00:12:28;89668.72;;;3.45;73.22
9935;BME280;5006;41.828;23.478;2024-01-15T00:13:34;89671.09;;;3.54;72.47
9935;BME280;5006;41.828;23.478;2024-01-15T00:14:41;89667.66;;;3.53;74.23
9935;BME280;5006;41.828;23.478;2024-01-15T00:15:47;89669.78;;;4.03;72.67
9935;BME280;5006;41.828;23.478;2024-01-15T00:16:53;89654.81;;;4.21;73.66
9935;BME280;5006;41.828;23.478;2024-01-15T00:18:00;89665.06;;;3.86;74.60
9935;BME280;5006;41.828;23.478;2024-01-15T00:19:06;89660.94;;;4.25;72.07
9935;BME280;5006;41.828;23.478;2024-01-15T00:20:12;89673.25;;;3.74;74.04
9935;BME280;5006;41.828;23.478;2024-01-15T00:21:19;89668.84;;;3.56;73.99
9935;BME280;5006;41.828;23.478;2024-01-15T00:22:25;89669.34;;;3.35;72.31
9935;BME280;5006;41.828;23.478;2024-01-15T00:23:32;89670.66;;;3.48;72.25
9935;BME280;5006;41.828;23.478;2024-01-15T00:24:37;89668.44;;;3.54;73.72
9935;BME280;5006;41.828;23.478;2024-01-15T00:25:43;89667.25;;;3.81;74.54
9935;BME280;5006;41.828;23.478;2024-01-15T00:26:49;89666.53;;;3.84;71.84
9935;BME280;5006;41.828;23.478;2024-01-15T00:27:57;89660.66;;;3.97;70.47
9935;BME280;5006;41.828;23.478;2024-01-15T00:29:03;89663.75;;;4.06;70.06
9935;BME280;5006;41.828;23.478;2024-01-15T00:30:11;89666.47;;;4.49;68.30
9935;BME280;5006;41.828;23.478;2024-01-15T00:31:16;89668.97;;;4.32;68.55
9935;BME280;5006;41.828;23.478;2024-01-15T00:32:23;89668.56;;;4.30;69.07
9935;BME280;5006;41.828;23.478;2024-01-15T00:33:28;89658.03;;;4.37;68.14
9935;BME280;5006;41.828;23.478;2024-01-15T00:34:34;89659.56;;;4.38;67.96
9935;BME280;5006;41.828;23.478;2024-01-15T00:35:39;89659.47;;;4.71;68.08
9935;BME280;5006;41.828;23.478;2024-01-15T00:36:46;89660.72;;;4.84;67.03
9935;BME280;5006;41.828;23.478;2024-01-15T00:37:52;89656.56;;;4.86;67.07
9935;BME280;5006;41.828;23.478;2024-01-15T00:38:58;89655.94;;;4.56;68.97
9935;BME280;5006;41.828;23.478;2024-01-15T00:40:04;89663.47;;;4.98;68.35
9935;BME280;5006;41.828;23.478;2024-01-15T00:41:11;89665.22;;;4.76;67.27
9935;BME280;5006;41.828;23.478;2024-01-15T00:42:17;89656.38;;;4.62;67.28
9935;BME280;5006;41.828;23.478;2024-01-15T00:43:25;89672.19;;;3.82;68.41
9935;BME280;5006;41.828;23.478;2024-01-15T00:44:31;89665.56;;;3.99;69.67
9935;BME280;5006;41.828;23.478;2024-01-15T00:45:38;89662.91;;;3.99;68.65
9935;BME280;5006;41.828;23.478;2024-01-15T00:46:43;89661.00;;;4.72;68.23
9935;BME280;5006;41.828;23.478;2024-01-15T00:47:51;89666.59;;;4.60;67.95
9935;BME280;5006;41.828;23.478;2024-01-15T00:48:57;89664.50;;;4.83;67.23
9935;BME280;5006;41.828;23.478;2024-01-15T00:50:05;89665.19;;;4.73;66.98
9935;BME280;5006;41.828;23.478;2024-01-15T00:51:10;89663.38;;;4.84;67.59
9935;BME280;5006;41.828;23.478;2024-01-15T00:52:17;89655.13;;;4.96;69.54
9935;BME280;5006;41.828;23.478;2024-01-15T00:53:22;89649.13;;;4.59;69.35
9935;BME280;5006;41.828;23.478;2024-01-15T00:54:28;89654.81;;;4.21;70.09
9935;BME280;5006;41.828;23.478;2024-01-15T00:55:33;89648.03;;;4.60;70.60
9935;BME280;5006;41.828;23.478;2024-01-15T00:56:39;89643.81;;;4.59;71.97
9935;BME280;5006;41.828;23.478;2024-01-15T00:57:44;89642.16;;;4.87;71.80
9935;BME280;5006;41.828;23.478;2024-01-15T00:58:51;89648.97;;;4.85;71.04
9935;BME280;5006;41.828;23.478;2024-01-15T00:59:57;89643.81;;;4.55;71.62
9935;BME280;5006;41.828;23.478;2024-01-15T01:01:04;89647.91;;;4.93;70.36
9935;BME280;5006;41.828;23.478;2024-01-15T01:02:09;89640.38;;;5.02;68.12
9935;BME280;5006;41.828;23.478;2024-01-15T01:03:15;89641.69;;;4.75;67.96
9935;BME280;5006;41.828;23.478;2024-01-15T01:04:21;89638.03;;;4.93;67.68
9935;BME280;5006;41.828;23.478;2024-01-15T01:05:28;89640.41;;;5.09;66.90
9935;BME280;5006;41.828;23.478;2024-01-15T01:06:33;89635.75;;;4.92;66.74
9935;BME280;5006;41.828;23.478;2024-01-15T01:07:40;89635.84;;;4.55;67.24
9935;BME280;5006;41.828;23.478;2024-01-15T01:08:45;89634.22;;;4.91;66.71
9935;BME280;5006;41.828;23.478;2024-01-15T01:09:51;89639.31;;;4.63;68.97
9935;BME280;5006;41.828;23.478;2024-01-15T01:10:56;89636.84;;;4.44;70.49
9935;BME280;5006;41.828;23.478;2024-01-15T01:12:03;89642.75;;;4.27;71.17
9935;BME280;5006;41.828;23.478;2024-01-15T01:13:09;89640.59;;;4.36;70.63
9935;BME280;5006;41.828;23.478;2024-01-15T01:14:17;89632.94;;;4.31;71.50
9935;BME280;5006;41.828;23.478;2024-01-15T01:15:23;89628.88;;;4.04;74.27
9935;BME280;5006;41.828;23.478;2024-01-15T01:16:30;89621.31;;;4.06;74.93
9935;BME280;5006;41.828;23.478;2024-01-15T01:17:36;89623.03;;;3.88;75.47
9935;BME280;5006;41.828;23.478;2024-01-15T01:18:43;89627.59;;;3.91;75.84
9935;BME280;5006;41.828;23.478;2024-01-15T01:19:47;89624.88;;;4.20;75.57
9935;BME280;5006;41.828;23.478;2024-01-15T01:20:54;89626.44;;;3.89;77.04
9935;BME280;5006;41.828;23.478;2024-01-15T01:22:00;89621.16;;;4.25;76.25
9935;BME280;5006;41.828;23.478;2024-01-15T01:23:07;89619.34;;;4.36;75.32
9935;BME280;5006;41.828;23.478;2024-01-15T01:24:13;89625.59;;;3.81;76.06
9935;BME280;5006;41.828;23.478;2024-01-15T01:25:19;89619.69;;;3.95;76.91
9935;BME280;5006;41.828;23.478;2024-01-15T01:26:27;89618.56;;;3.96;78.01
9935;BME280;5006;41.828;23.478;2024-01-15T01:27:33;89623.19;;;3.69;74.99
9935;BME280;5006;41.828;23.478;2024-01-15T01:28:40;89622.41;;;4.38;72.75
9935;BME280;5006;41.828;23.478;2024-01-15T01:29:46;89622.38;;;4.34;71.93
9935;BME280;5006;41.828;23.478;2024-01-15T01:30:53;89623.41;;;4.23;71.54
9935;BME280;5006;41.828;23.478;2024-01-15T01:31:59;89629.09;;;3.89;75.25
9935;BME280;5006;41.828;23.478;2024-01-15T01:33:10;89622.50;;;4.48;75.96
9935;BME280;5006;41.828;23.478;2024-01-15T01:34:16;89617.97;;;4.49;73.01
9935;BME280;5006;41.828;23.478;2024-01-15T01:35:22;89615.25;;;4.89;71.24
9935;BME280;5006;41.828;23.478;2024-01-15T01:36:28;89613.03;;;4.51;70.24
9935;BME280;5006;41.828;23.478;2024-01-15T01:37:37;89619.63;;;4.27;71.42
9935;BME280;5006;41.828;23.478;2024-01-15T01:38:42;89621.84;;;4.62;70.50
9935;BME280;5006;41.828;23.478;2024-01-15T01:39:48;89617.41;;;4.76;70.73
9935;BME280;5006;41.828;23.478;2024-01-15T01:40:53;89616.63;;;4.72;69.69
9935;BME280;5006;41.828;23.478;2024-01-15T01:42:00;89617.25;;;5.06;68.88
9935;BME280;5006;41.828;23.478;2024-01-15T01:43:06;89620.66;;;4.56;69.99
9935;BME280;5006;41.828;23.478;2024-01-15T01:44:15;89617.88;;;4.85;69.42
9935;BME280;5006;41.828;23.478;2024-01-15T01:45:21;89615.72;;;4.54;68.91
9935;BME280;5006;41.828;23.478;2024-01-15T01:46:28;89607.09;;;4.24;69.07
9935;BME280;5006;41.828;23.478;2024-01-15T01:47:34;89608.63;;;4.22;69.85
9935;BME280;5006;41.828;23.478;2024-01-15T01:48:41;89610.53;;;4.68;69.75
9935;BME280;5006;41.828;23.478;2024-01-15T01:49:47;89612.25;;;4.47;69.38
9935;BME280;5006;41.828;23.478;2024-01-15T01:50:59;89614.84;;;4.40;68.76
9935;BME280;5006;41.828;23.478;2024-01-15T01:52:05;89618.22;;;3.97;70.90
9935;BME280;5006;41.828;23.478;2024-01-15T01:53:13;89612.81;;;3.90;70.40
9935;BME280;5006;41.828;23.478;2024-01-15T01:54:19;89622.31;;;3.58;71.27
9935;BME280;5006;41.828;23.478;2024-01-15T01:55:29;89619.88;;;4.12;71.21
9935;BME280;5006;41.828;23.478;2024-01-15T01:56:35;89619.41;;;4.43;69.93
9935;BME280;5006;41.828;23.478;2024-01-15T01:57:42;89613.94;;;4.25;69.72
9935;BME280;5006;41.828;23.478;2024-01-15T01:58:48;89613.09;;;4.18;70.45
9935;BME280;5006;41.828;23.478;2024-01-15T01:59:55;89611.66;;;3.55;71.48
9935;BME280;5006;41.828;23.478;2024-01-15T02:01:02;89605.56;;;3.21;73.88
9935;BME280;5006;41.828;23.478;2024-01-15T02:02:09;89600.34;;;3.58;73.31
9935;BME280;5006;41.828;23.478;2024-01-15T02:03:14;89608.75;;;4.36;71.33
9935;BME280;5006;41.828;23.478;2024-01-15T02:04:20;89603.75;;;4.31;70.54
9935;BME280;5006;41.828;23.478;2024-01-15T02:05:27;89613.41;;;3.77;71.84
9935;BME280;5006;41.828;23.478;2024-01-15T02:06:35;89594.34;;;4.37;70.88
9935;BME280;5006;41.828;23.478;2024-01-15T02:07:41;89607.84;;;4.21;70.32
9935;BME280;5006;41.828;23.478;2024-01-15T02:08:47;89602.44;;;4.11;70.65
9935;BME280;5006;41.828;23.478;2024-01-15T02:09:52;89601.56;;;4.40;69.20
9935;BME280;5006;41.828;23.478;2024-01-15T02:10:58;89597.59;;;3.84;70.04
9935;BME280;5006;41.828;23.478;2024-01-15T02:12:05;89590.34;;;3.77;70.31
9935;BME280;5006;41.828;23.478;2024-01-15T02:13:12;89592.97;;;3.77;70.40
9935;BME280;5006;41.828;23.478;2024-01-15T02:14:17;89593.34;;;4.12;69.98
9935;BME280;5006;41.828;23.478;2024-01-15T02:15:23;89588.91;;;4.23;69.70
9935;BME280;5006;41.828;23.478;2024-01-15T02:16:29;89588.22;;;3.93;69.92
9935;BME280;5006;41.828;23.478;2024-01-15T02:17:58;89587.47;;;4.32;69.35
9935;BME280;5006;41.828;23.478;2024-01-15T02:19:05;89592.97;;;4.10;69.54
9935;BME280;5006;41.828;23.478;2024-01-15T02:20:12;89590.38;;;3.81;69.95
9935;BME280;5006;41.828;23.478;2024-01-15T02:21:19;89584.63;;;4.55;69.20
9935;BME280;5006;41.828;23.478;2024-01-15T02:22:26;89591.69;;;3.97;69.30
9935;BME280;5006;41.828;23.478;2024-01-15T02:23:34;89593.06;;;3.51;70.89
9935;BME280;5006;41.828;23.478;2024-01-15T02:24:40;89596.13;;;3.53;70.46
9935;BME280;5006;41.828;23.478;2024-01-15T02:25:46;89591.59;;;3.90;71.01
9935;BME280;5006;41.828;23.478;2024-01-15T02:26:54;89586.38;;;3.97;72.06
9935;BME280;5006;41.828;23.478;2024-01-15T02:28:00;89595.53;;;4.03;72.13
9935;BME280;5006;41.828;23.478;2024-01-15T02:29:07;89589.94;;;3.75;73.47
9935;BME280;5006;41.828;23.478;2024-01-15T02:30:13;89591.81;;;3.42;73.33
9935;BME280;5006;41.828;23.478;2024-01-15T02:31:20;89598.22;;;4.07;71.52
9935;BME280;5006;41.828;23.478;2024-01-15T02:32:26;89593.22;;;4.38;70.18
9935;BME280;5006;41.828;23.478;2024-01-15T02:33:32;89601.28;;;3.72;70.94
9935;BME280;5006;41.828;23.478;2024-01-15T02:34:39;89589.59;;;4.17;70.95
9935;BME280;5006;41.828;23.478;2024-01-15T02:35:46;89589.44;;;3.99;70.64
9935;BME280;5006;41.828;23.478;2024-01-15T02:36:55;89582.22;;;4.00;69.71
9935;BME280;5006;41.828;23.478;2024-01-15T02:38:03;89578.75;;;3.92;70.01
9935;BME280;5006;41.828;23.478;2024-01-15T02:39:09;89586.97;;;4.17;69.27
9935;BME280;5006;41.828;23.478;2024-01-15T02:40:16;89589.69;;;3.87;70.15
9935;BME280;5006;41.828;23.478;2024-01-15T02:41:22;89586.19;;;3.80;70.93
9935;BME280;5006;41.828;23.478;2024-01-15T02:42:28;89585.91;;;3.55;71.23
9935;BME280;5006;41.828;23.478;2024-01-15T02:43:33;89586.84;;;3.70;71.45
9935;BME280;5006;41.828;23.478;2024-01-15T02:44:39;89586.19;;;3.80;72.31
9935;BME280;5006;41.828;23.478;2024-01-15T02:45:44;89588.00;;;4.09;71.36
9935;BME280;5006;41.828;23.478;2024-01-15T02:46:49;89583.78;;;4.04;71.48
9935;BME280;5006;41.828;23.478;2024-01-15T02:47:54;89581.94;;;3.39;71.99
9935;BME280;5006;41.828;23.478;2024-01-15T02:49:01;89581.06;;;2.72;73.94
9935;BME280;5006;41.828;23.478;2024-01-15T02:50:08;89584.09;;;2.74;73.90
9935;BME280;5006;41.828;23.478;2024-01-15T02:51:15;89580.81;;;3.40;72.47
9935;BME280;5006;41.828;23.478;2024-01-15T02:52:22;89581.59;;;3.73;71.49
9935;BME280;5006;41.828;23.478;2024-01-15T02:53:28;89585.84;;;3.19;71.66
9935;BME280;5006;41.828;23.478;2024-01-15T02:54:35;89580.31;;;3.64;72.03
9935;BME280;5006;41.828;23.478;2024-01-15T02:55:41;89589.34;;;3.26;71.62
9935;BME280;5006;41.828;23.478;2024-01-15T02:56:48;89581.84;;;3.32;71.77
9935;BME280;5006;41.828;23.478;2024-01-15T02:57:53;89580.16;;;3.17;75.83
9935;BME280;5006;41.828;23.478;2024-01-15T02:59:00;89578.00;;;3.26;76.55
9935;BME280;5006;41.828;23.478;2024-01-15T03:00:07;89588.59;;;2.22;76.97
9935;BME280;5006;41.828;23.478;2024-01-15T03:01:14;89576.31;;;2.85;78.02
9935;BME280;5006;41.828;23.478;2024-01-15T03:02:20;89569.25;;;2.66;76.94
9935;BME280;5006;41.828;23.478;2024-01-15T03:03:27;89589.34;;;2.97;76.56
9935;BME280;5006;41.828;23.478;2024-01-15T03:04:33;89581.63;;;3.14;77.05
9935;BME280;5006;41.828;23.478;2024-01-15T03:05:38;89584.16;;;3.04;77.24
9935;BME280;5006;41.828;23.478;2024-01-15T03:06:44;89573.13;;;2.72;78.56
9935;BME280;5006;41.828;23.478;2024-01-15T03:07:50;89571.66;;;2.75;77.63
9935;BME280;5006;41.828;23.478;2024-01-15T03:08:55;89563.09;;;3.14;76.95
9935;BME280;5006;41.828;23.478;2024-01-15T03:10:01;89569.34;;;2.99;77.70
9935;BME280;5006;41.828;23.478;2024-01-15T03:11:08;89570.25;;;3.10;77.24
9935;BME280;5006;41.828;23.478;2024-01-15T03:12:14;89567.88;;;3.05;77.05
9935;BME280;5006;41.828;23.478;2024-01-15T03:13:21;89571.03;;;3.44;75.49
9935;BME280;5006;41.828;23.478;2024-01-15T03:14:26;89573.72;;;3.47;75.18
9935;BME280;5006;41.828;23.478;2024-01-15T03:15:32;89568.63;;;3.68;73.64
9935;BME280;5006;41.828;23.478;2024-01-15T03:16:37;89573.28;;;3.42;73.76
9935;BME280;5006;41.828;23.478;2024-01-15T03:17:44;89570.66;;;3.45;73.47
9935;BME280;5006;41.828;23.478;2024-01-15T03:18:49;89574.47;;;3.15;73.75
9935;BME280;5006;41.828;23.478;2024-01-15T03:19:55;89564.16;;;3.39;73.44
9935;BME280;5006;41.828;23.478;2024-01-15T03:21:00;89572.16;;;3.13;73.93
9935;BME280;5006;41.828;23.478;2024-01-15T03:22:07;89571.63;;;3.01;74.33
9935;BME280;5006;41.828;23.478;2024-01-15T03:23:13;89573.72;;;2.62;76.29
9935;BME280;5006;41.828;23.478;2024-01-15T03:24:19;89570.00;;;3.22;76.31
9935;BME280;5006;41.828;23.478;2024-01-15T03:25:26;89567.81;;;3.31;74.07
9935;BME280;5006;41.828;23.478;2024-01-15T03:26:33;89571.38;;;3.42;73.92
9935;BME280;5006;41.828;23.478;2024-01-15T03:27:39;89576.56;;;2.76;74.60
9935;BME280;5006;41.828;23.478;2024-01-15T03:28:44;89580.47;;;2.34;75.02
9935;BME280;5006;41.828;23.478;2024-01-15T03:29:50;89569.00;;;2.26;76.23
9935;BME280;5006;41.828;23.478;2024-01-15T03:30:57;89565.97;;;2.24;76.52
9935;BME280;5006;41.828;23.478;2024-01-15T03:32:02;89556.63;;;3.12;74.68
9935;BME280;5006;41.828;23.478;2024-01-15T03:33:09;89564.66;;;2.89;74.36
9935;BME280;5006;41.828;23.478;2024-01-15T03:34:15;89563.34;;;2.50;74.13
9935;BME280;5006;41.828;23.478;2024-01-15T03:35:21;89557.94;;;2.95;75.09
9935;BME280;5006;41.828;23.478;2024-01-15T03:36:27;89567.50;;;2.77;75.23
9935;BME280;5006;41.828;23.478;2024-01-15T03:37:34;89564.75;;;2.18;75.62
9935;BME280;5006;41.828;23.478;2024-01-15T03:38:41;89573.91;;;1.80;77.32
9935;BME280;5006;41.828;23.478;2024-01-15T03:39:47;89567.13;;;1.60;78.29
9935;BME280;5006;41.828;23.478;2024-01-15T03:40:54;89571.47;;;1.71;78.37
9935;BME280;5006;41.828;23.478;2024-01-15T03:42:01;89571.53;;;1.75;79.02
9935;BME280;5006;41.828;23.478;2024-01-15T03:43:06;89567.09;;;2.01;78.56
9935;BME280;5006;41.828;23.478;2024-01-15T03:44:12;89561.50;;;2.80;77.49
9935;BME280;5006;41.828;23.478;2024-01-15T03:45:18;89561.88;;;2.79;76.42
9935;BME280;5006;41.828;23.478;2024-01-15T03:46:24;89560.09;;;2.34;76.69
9935;BME280;5006;41.828;23.478;2024-01-15T03:47:29;89565.25;;;2.27;78.49
9935;BME280;5006;41.828;23.478;2024-01-15T03:48:36;89559.34;;;2.89;76.36
9935;BME280;5006;41.828;23.478;2024-01-15T03:49:41;89560.91;;;2.64;74.88
9935;BME280;5006;41.828;23.478;2024-01-15T03:50:47;89564.66;;;2.63;77.19
9935;BME280;5006;41.828;23.478;2024-01-15T03:51:53;89564.13;;;2.77;78.07
9935;BME280;5006;41.828;23.478;2024-01-15T03:53:00;89554.88;;;2.67;75.92
9935;BME280;5006;41.828;23.478;2024-01-15T03:54:06;89555.22;;;2.62;75.60
9935;BME280;5006;41.828;23.478;2024-01-15T03:55:12;89557.31;;;2.79;77.02
9935;BME280;5006;41.828;23.478;2024-01-15T03:56:18;89551.03;;;3.17;76.27
9935;BME280;5006;41.828;23.478;2024-01-15T03:57:25;89551.38;;;3.15;75.33
9935;BME280;5006;41.828;23.478;2024-01-15T03:58:31;89550.25;;;2.87;75.96
9935;BME280;5006;41.828;23.478;2024-01-15T03:59:37;89544.69;;;2.66;76.22
9935;BME280;5006;41.828;23.478;2024-01-15T04:00:43;89544.31;;;2.97;75.68
9935;BME280;5006;41.828;23.478;2024-01-15T04:01:49;89549.38;;;2.79;75.20
9935;BME280;5006;41.828;23.478;2024-01-15T04:02:56;89550.75;;;2.96;76.29
9935;BME280;5006;41.828;23.478;2024-01-15T04:04:02;89559.94;;;2.50;76.25
9935;BME280;5006;41.828;23.478;2024-01-15T04:05:09;89557.97;;;2.21;76.54
9935;BME280;5006;41.828;23.478;2024-01-15T04:06:16;89561.94;;;2.86;75.61
9935;BME280;5006;41.828;23.478;2024-01-15T04:07:22;89559.00;;;2.91;75.29
9935;BME280;5006;41.828;23.478;2024-01-15T04:08:27;89562.34;;;3.14;74.47
9935;BME280;5006;41.828;23.478;2024-01-15T04:09:33;89560.91;;;2.64;76.41
9935;BME280;5006;41.828;23.478;2024-01-15T04:10:38;89561.72;;;2.94;75.97
9935;BME280;5006;41.828;23.478;2024-01-15T04:11:46;89556.72;;;2.63;73.90
9935;BME280;5006;41.828;23.478;2024-01-15T04:12:52;89559.09;;;2.68;74.26
9935;BME280;5006;41.828;23.478;2024-01-15T04:13:59;89555.72;;;2.71;74.98
9935;BME280;5006;41.828;23.478;2024-01-15T04:15:06;89559.22;;;2.27;77.33
9935;BME280;5006;41.828;23.478;2024-01-15T04:16:13;89559.59;;;2.03;80.45
9935;BME280;5006;41.828;23.478;2024-01-15T04:17:19;89566.88;;;2.09;81.59
9935;BME280;5006;41.828;23.478;2024-01-15T04:18:26;89565.44;;;1.93;83.22
9935;BME280;5006;41.828;23.478;2024-01-15T04:19:33;89569.72;;;1.79;83.61
9935;BME280;5006;41.828;23.478;2024-01-15T04:20:38;89566.66;;;1.54;84.01
9935;BME280;5006;41.828;23.478;2024-01-15T04:21:45;89569.31;;;2.21;83.67
9935;BME280;5006;41.828;23.478;2024-01-15T04:22:50;89571.38;;;2.31;83.86
9935;BME280;5006;41.828;23.478;2024-01-15T04:23:57;89560.50;;;2.36;87.32
9935;BME280;5006;41.828;23.478;2024-01-15T04:25:05;89567.88;;;2.24;91.05
9935;BME280;5006;41.828;23.478;2024-01-15T04:26:12;89565.28;;;2.53;92.17
9935;BME280;5006;41.828;23.478;2024-01-15T04:27:19;89559.91;;;3.02;89.44
9935;BME280;5006;41.828;23.478;2024-01-15T04:28:26;89558.59;;;2.89;86.88
9935;BME280;5006;41.828;23.478;2024-01-15T04:29:31;89551.31;;;3.12;86.48
9935;BME280;5006;41.828;23.478;2024-01-15T04:30:38;89552.91;;;3.16;86.03
9935;BME280;5006;41.828;23.478;2024-01-15T04:31:43;89554.16;;;2.96;87.57
9935;BME280;5006;41.828;23.478;2024-01-15T04:32:50;89559.38;;;2.37;89.39
9935;BME280;5006;41.828;23.478;2024-01-15T04:33:55;89555.56;;;2.12;87.80
9935;BME280;5006;41.828;23.478;2024-01-15T04:35:01;89555.09;;;2.81;86.93
9935;BME280;5006;41.828;23.478;2024-01-15T04:36:06;89547.19;;;3.44;84.23
9935;BME280;5006;41.828;23.478;2024-01-15T04:37:13;89559.72;;;3.17;82.73
9935;BME280;5006;41.828;23.478;2024-01-15T04:38:19;89567.44;;;2.70;86.05
9935;BME280;5006;41.828;23.478;2024-01-15T04:39:25;89568.94;;;2.45;85.68
9935;BME280;5006;41.828;23.478;2024-01-15T04:40:30;89564.44;;;3.01;85.57
9935;BME280;5006;41.828;23.478;2024-01-15T04:41:37;89562.19;;;3.03;87.99
9935;BME280;5006;41.828;23.478;2024-01-15T04:42:43;89566.56;;;2.92;87.77
9935;BME280;5006;41.828;23.478;2024-01-15T04:43:51;89558.59;;;3.18;87.47
9935;BME280;5006;41.828;23.478;2024-01-15T04:44:56;89563.22;;;3.58;86.99
9935;BME280;5006;41.828;23.478;2024-01-15T04:46:02;89560.25;;;3.63;85.47
9935;BME280;5006;41.828;23.478;2024-01-15T04:47:10;89560.03;;;3.78;84.13
9935;BME280;5006;41.828;23.478;2024-01-15T04:48:17;89568.19;;;3.59;82.73
9935;BME280;5006;41.828;23.478;2024-01-15T04:49:22;89571.16;;;3.91;82.64
9935;BME280;5006;41.828;23.478;2024-01-15T04:50:31;89568.78;;;3.82;83.56
9935;BME280;5006;41.828;23.478;2024-01-15T04:51:37;89560.03;;;3.78;85.00
9935;BME280;5006;41.828;23.478;2024-01-15T04:52:42;89559.41;;;3.55;86.43
9935;BME280;5006;41.828;23.478;2024-01-15T04:53:48;89555.84;;;4.13;84.67
9935;BME280;5006;41.828;23.478;2024-01-15T04:54:53;89553.72;;;3.90;84.94
9935;BME280;5006;41.828;23.478;2024-01-15T04:55:59;89551.50;;;3.95;83.96
9935;BME280;5006;41.828;23.478;2024-01-15T04:57:04;89555.13;;;4.20;82.96
9935;BME280;5006;41.828;23.478;2024-01-15T04:58:11;89553.94;;;4.14;83.41
9935;BME280;5006;41.828;23.478;2024-01-15T04:59:17;89550.84;;;4.52;81.60
9935;BME280;5006;41.828;23.478;2024-01-15T05:00:23;89547.00;;;4.42;80.89
9935;BME280;5006;41.828;23.478;2024-01-15T05:01:31;89552.72;;;4.48;81.08
9935;BME280;5006;41.828;23.478;2024-01-15T05:02:39;89562.13;;;4.38;81.86
9935;BME280;5006;41.828;23.478;2024-01-15T05:03:44;89559.03;;;3.93;82.64
9935;BME280;5006;41.828;23.478;2024-01-15T05:04:51;89568.66;;;3.35;82.99
9935;BME280;5006;41.828;23.478;2024-01-15T05:05:57;89568.78;;;3.16;83.07
9935;BME280;5006;41.828;23.478;2024-01-15T05:07:03;89564.41;;;3.64;82.74
9935;BME280;5006;41.828;23.478;2024-01-15T05:08:08;89565.78;;;2.36;81.61
9935;BME280;5006;41.828;23.478;2024-01-15T05:09:14;89566.25;;;2.42;82.37
9935;BME280;5006;41.828;23.478;2024-01-15T05:10:21;89568.03;;;3.16;80.33
9935;BME280;5006;41.828;23.478;2024-01-15T05:11:26;89569.50;;;3.43;78.85
9935;BME280;5006;41.828;23.478;2024-01-15T05:12:33;89559.34;;;3.85;78.03
9935;BME280;5006;41.828;23.478;2024-01-15T05:13:39;89566.13;;;3.82;77.80
9935;BME280;5006;41.828;23.478;2024-01-15T05:14:46;89561.56;;;4.16;76.76
9935;BME280;5006;41.828;23.478;2024-01-15T05:15:51;89562.28;;;3.76;76.40
9935;BME280;5006;41.828;23.478;2024-01-15T05:16:57;89560.47;;;3.84;77.99
9935;BME280;5006;41.828;23.478;2024-01-15T05:18:03;89556.94;;;3.73;77.60
9935;BME280;5006;41.828;23.478;2024-01-15T05:19:10;89551.81;;;4.30;76.50
9935;BME280;5006;41.828;23.478;2024-01-15T05:20:16;89553.59;;;4.16;75.97
9935;BME280;5006;41.828;23.478;2024-01-15T05:21:23;89552.28;;;3.59;77.11
9935;BME280;5006;41.828;23.478;2024-01-15T05:22:28;89550.34;;;3.56;76.73
9935;BME280;5006;41.828;23.478;2024-01-15T05:23:35;89549.25;;;3.28;77.64
9935;BME280;5006;41.828;23.478;2024-01-15T05:24:41;89555.59;;;3.20;77.69
9935;BME280;5006;41.828;23.478;2024-01-15T05:25:47;89561.81;;;3.67;76.64
9935;BME280;5006;41.828;23.478;2024-01-15T05:26:53;89556.22;;;3.76;76.92
9935;BME280;5006;41.828;23.478;2024-01-15T05:27:59;89555.94;;;3.18;76.31
9935;BME280;5006;41.828;23.478;2024-01-15T05:29:06;89563.97;;;2.96;77.02
9935;BME280;5006;41.828;23.478;2024-01-15T05:30:13;89560.91;;;2.64;77.27
9935;BME280;5006;41.828;23.478;2024-01-15T05:31:19;89564.25;;;2.87;78.04
9935;BME280;5006;41.828;23.478;2024-01-15T05:32:26;89554.16;;;3.26;77.90
9935;BME280;5006;41.828;23.478;2024-01-15T05:33:32;89556.81;;;3.26;76.75
9935;BME280;5006;41.828;23.478;2024-01-15T05:34:38;89550.63;;;2.85;76.90
9935;BME280;5006;41.828;23.478;2024-01-15T05:35:44;89553.34;;;2.40;78.01
9935;BME280;5006;41.828;23.478;2024-01-15T05:36:51;89555.69;;;2.19;78.73
9935;BME280;5006;41.828;23.478;2024-01-15T05:37:59;89550.75;;;2.18;79.66
9935;BME280;5006;41.828;23.478;2024-01-15T05:39:05;89555.47;;;2.06;79.94
9935;BME280;5006;41.828;23.478;2024-01-15T05:40:11;89547.25;;;2.36;80.13
9935;BME280;5006;41.828;23.478;2024-01-15T05:41:17;89544.19;;;2.86;78.98
9935;BME280;5006;41.828;23.478;2024-01-15T05:42:24;89545.56;;;3.06;77.26
9935;BME280;5006;41.828;23.478;2024-01-15T05:43:29;89550.31;;;2.38;77.69
9935;BME280;5006;41.828;23.478;2024-01-15T05:44:37;89553.34;;;1.92;80.13
9935;BME280;5006;41.828;23.478;2024-01-15T05:45:43;89559.03;;;2.16;80.02
9935;BME280;5006;41.828;23.478;2024-01-15T05:46:50;89562.47;;;2.95;78.89
9935;BME280;5006;41.828;23.478;2024-01-15T05:47:59;89558.91;;;3.13;77.73
9935;BME280;5006;41.828;23.478;2024-01-15T05:49:06;89555.25;;;3.21;78.11
9935;BME280;5006;41.828;23.478;2024-01-15T05:50:12;89549.09;;;3.14;78.03
9935;BME280;5006;41.828;23.478;2024-01-15T05:51:18;89546.28;;;3.33;78.55
9935;BME280;5006;41.828;23.478;2024-01-15T05:52:24;89532.56;;;3.57;77.39
9935;BME280;5006;41.828;23.478;2024-01-15T05:53:31;89537.53;;;3.29;77.53
9935;BME280;5006;41.828;23.478;2024-01-15T05:54:36;89537.78;;;3.17;78.35
9935;BME280;5006;41.828;23.478;2024-01-15T05:55:42;89540.53;;;3.27;77.96
9935;BME280;5006;41.828;23.478;2024-01-15T05:56:48;89544.94;;;3.16;78.44
9935;BME280;5006;41.828;23.478;2024-01-15T05:57:55;89549.16;;;2.91;79.14
9935;BME280;5006;41.828;23.478;2024-01-15T05:59:01;89545.47;;;2.70;81.94
9935;BME280;5006;41.828;23.478;2024-01-15T06:00:10;89544.38;;;2.45;83.55
9935;BME280;5006;41.828;23.478;2024-01-15T06:01:15;89543.47;;;2.89;84.57